createdAt,value
2018-04-26T00:00:06.058Z,7.77
2018-04-26T00:02:32.058Z,8.63
2018-04-26T00:04:59.541Z,7.07
2018-04-26T00:07:25.541Z,7.70
2018-04-26T00:09:51.544Z,8.30
2018-04-26T00:12:17.554Z,7.90
2018-04-26T00:14:44.301Z,7.47
2018-04-26T00:17:10.298Z,7.70
2018-04-26T00:19:36.305Z,7.60
2018-04-26T00:22:02.306Z,8.03
2018-04-26T00:24:28.314Z,8.20
2018-04-26T00:26:54.308Z,8.70
2018-04-26T00:29:20.369Z,8.03
2018-04-26T00:31:46.374Z,8.17
2018-04-26T00:34:12.389Z,7.63
2018-04-26T00:36:39.133Z,7.00
2018-04-26T00:39:05.895Z,5.50
2018-04-26T00:41:32.629Z,6.80
2018-04-26T00:43:58.652Z,8.50
2018-04-26T00:46:24.657Z,7.00
2018-04-26T00:48:50.667Z,6.97
2018-04-26T00:51:29.004Z,6.70
2018-04-26T00:53:55.024Z,6.07
2018-04-26T00:56:21.021Z,7.20
2018-04-26T00:58:47.779Z,7.97
2018-04-26T01:01:14.523Z,7.30
2018-04-26T01:03:40.542Z,7.50
2018-04-26T01:06:06.552Z,6.70
2018-04-26T01:08:32.618Z,6.80
2018-04-26T01:10:58.643Z,7.33
2018-04-26T01:13:24.654Z,7.60
2018-04-26T01:15:50.669Z,7.10
2018-04-26T01:18:17.426Z,6.10
2018-04-26T01:20:43.435Z,6.93
2018-04-26T01:23:09.451Z,7.07
2018-04-26T01:25:35.473Z,6.93
2018-04-26T01:28:01.506Z,6.67
2018-04-26T01:30:27.540Z,5.70
2018-04-26T01:32:53.572Z,6.00
2018-04-26T01:35:19.612Z,6.17
2018-04-26T01:37:47.517Z,5.83
2018-04-26T01:40:14.391Z,6.20
2018-04-26T01:42:41.154Z,5.87
2018-04-26T01:45:07.930Z,6.50
2018-04-26T01:47:33.950Z,6.60
2018-04-26T01:50:00.726Z,6.10
2018-04-26T01:52:26.762Z,6.00
2018-04-26T01:54:52.787Z,6.60
2018-04-26T01:57:18.814Z,6.60
2018-04-26T01:59:44.864Z,7.07
2018-04-26T02:02:10.890Z,7.70
2018-04-26T02:04:36.903Z,7.53
2018-04-26T02:07:03.676Z,8.27
2018-04-26T02:09:29.701Z,7.50
2018-04-26T02:11:55.740Z,7.90
2018-04-26T02:14:22.534Z,8.20
2018-04-26T02:16:48.564Z,8.20
2018-04-26T02:19:14.590Z,7.37
2018-04-26T02:21:40.634Z,8.10
2018-04-26T02:24:06.650Z,8.13
2018-04-26T02:26:32.683Z,7.83
2018-04-26T02:28:58.701Z,7.13
2018-04-26T02:31:25.468Z,7.50
2018-04-26T02:33:51.478Z,6.87
2018-04-26T02:36:18.243Z,6.13
2018-04-26T02:38:44.999Z,6.40
2018-04-26T02:41:11.754Z,7.10
2018-04-26T02:43:37.776Z,6.23
2018-04-26T02:46:04.542Z,6.70
2018-04-26T02:48:30.553Z,6.73
2018-04-26T02:50:56.577Z,6.53
2018-04-26T02:53:24.078Z,6.70
2018-04-26T02:55:50.897Z,7.40
2018-04-26T02:58:16.911Z,6.67
2018-04-26T03:00:42.947Z,6.33
2018-04-26T03:03:08.971Z,6.57
2018-04-26T03:05:34.986Z,5.70
2018-04-26T03:08:01.002Z,6.40
2018-04-26T03:10:27.783Z,7.10
2018-04-26T03:12:53.809Z,7.10
2018-04-26T03:15:19.827Z,6.00
2018-04-26T03:17:46.599Z,5.80
2018-04-26T03:20:12.613Z,6.70
2018-04-26T03:22:39.380Z,5.97
2018-04-26T03:25:05.398Z,6.77
2018-04-26T03:27:32.199Z,6.40
2018-04-26T03:29:58.228Z,6.63
2018-04-26T03:32:24.266Z,6.13
2018-04-26T03:34:50.282Z,5.97
2018-04-26T03:37:16.353Z,6.70
2018-04-26T03:39:42.330Z,7.07
2018-04-26T03:42:09.089Z,7.50
2018-04-26T03:44:35.838Z,6.83
2018-04-26T03:47:02.671Z,7.60
2018-04-26T03:49:30.167Z,7.10
2018-04-26T03:51:56.911Z,8.00
2018-04-26T03:54:23.675Z,7.37
2018-04-26T03:56:50.433Z,7.70
2018-04-26T03:59:16.449Z,7.17
2018-04-26T04:01:55.518Z,6.90
2018-04-26T04:07:35.244Z,8.10
2018-04-26T04:10:01.270Z,8.03
2018-04-26T04:12:27.283Z,8.40
2018-04-26T04:14:53.297Z,9.17
2018-04-26T04:17:20.057Z,9.47
2018-04-26T04:19:46.081Z,10.17
2018-04-26T04:22:12.834Z,8.93
2018-04-26T04:24:39.634Z,9.07
2018-04-26T04:27:05.664Z,8.50
2018-04-26T04:29:31.689Z,8.67
2018-04-26T04:31:57.772Z,8.07
2018-04-26T04:34:23.811Z,9.00
2018-04-26T04:36:49.823Z,9.50
2018-04-26T04:39:15.844Z,10.30
2018-04-26T04:41:41.863Z,10.83
2018-04-26T04:44:07.884Z,8.90
2018-04-26T04:46:34.637Z,9.40
2018-04-26T04:49:01.394Z,7.90
2018-04-26T04:51:27.420Z,8.67
2018-04-26T04:53:54.183Z,9.47
2018-04-26T04:56:20.198Z,10.33
2018-04-26T04:58:46.953Z,8.20
2018-04-26T05:01:13.710Z,7.37
2018-04-26T05:03:40.473Z,7.27
2018-04-26T05:06:06.493Z,6.57
2018-04-26T05:08:33.240Z,6.20
2018-04-26T05:10:59.262Z,6.30
2018-04-26T05:13:25.352Z,6.80
2018-04-26T05:15:51.300Z,4.60
2018-04-26T05:18:17.335Z,5.13
2018-04-26T05:20:43.369Z,5.33
2018-04-26T05:23:09.392Z,4.70
2018-04-26T05:25:35.471Z,5.00
2018-04-26T05:28:01.437Z,5.10
2018-04-26T05:30:28.205Z,4.20
2018-04-26T05:32:54.218Z,4.03
2018-04-26T05:35:21.043Z,2.77
2018-04-26T05:37:47.057Z,3.90
2018-04-26T05:40:13.075Z,3.43
2018-04-26T05:42:39.092Z,4.97
2018-04-26T05:45:05.847Z,4.23
2018-04-26T05:47:31.876Z,5.30
2018-04-26T05:49:57.894Z,4.20
2018-04-26T05:52:24.647Z,5.20
2018-04-26T05:54:51.413Z,4.67
2018-04-26T05:57:17.430Z,4.07
2018-04-26T05:59:44.189Z,4.50
2018-04-26T06:02:10.961Z,4.27
2018-04-26T06:04:37.006Z,4.03
2018-04-26T06:07:03.043Z,4.50
2018-04-26T06:09:29.055Z,4.80
2018-04-26T06:11:55.833Z,6.17
2018-04-26T06:14:21.853Z,5.43
2018-04-26T06:16:47.879Z,3.90
2018-04-26T06:19:14.675Z,4.23
2018-04-26T06:21:40.678Z,4.13
2018-04-26T06:24:06.690Z,4.60
2018-04-26T06:26:33.441Z,4.20
2018-04-26T06:29:00.194Z,4.50
2018-04-26T06:31:26.961Z,3.77
2018-04-26T06:33:53.775Z,4.70
2018-04-26T06:36:19.809Z,4.43
2018-04-26T06:38:45.822Z,4.27
2018-04-26T06:41:11.844Z,4.20
2018-04-26T06:43:37.869Z,3.43
2018-04-26T06:46:03.924Z,3.63
2018-04-26T06:48:29.945Z,2.70
2018-04-26T06:50:55.958Z,2.83
2018-04-26T06:53:22.791Z,3.53
2018-04-26T06:55:48.740Z,2.50
2018-04-26T06:58:15.533Z,2.70
2018-04-26T07:00:41.567Z,2.93
2018-04-26T07:03:07.604Z,2.97
2018-04-26T07:05:33.618Z,2.67
2018-04-26T07:07:59.643Z,2.40
2018-04-26T07:10:26.404Z,3.00
2018-04-26T07:12:53.159Z,2.90
2018-04-26T07:15:19.911Z,2.80
2018-04-26T07:17:46.666Z,3.20
2018-04-26T07:20:12.683Z,2.67
2018-04-26T07:22:39.446Z,3.50
2018-04-26T07:25:06.208Z,3.20
2018-04-26T07:27:32.225Z,2.90
2018-04-26T07:29:58.971Z,3.27
2018-04-26T07:32:24.981Z,2.30
2018-04-26T07:34:50.994Z,2.33
2018-04-26T07:37:17.028Z,3.30
2018-04-26T07:39:43.038Z,2.40
2018-04-26T07:42:09.049Z,2.73
2018-04-26T07:44:35.063Z,2.57
2018-04-26T07:47:01.084Z,2.43
2018-04-26T07:49:27.102Z,2.30
2018-04-26T07:51:53.110Z,2.73
2018-04-26T07:54:19.866Z,2.60
2018-04-26T07:56:46.619Z,2.47
2018-04-26T07:59:13.375Z,2.53
2018-04-26T08:01:39.472Z,2.67
2018-04-26T08:04:06.169Z,3.23
2018-04-26T08:06:32.195Z,2.23
2018-04-26T08:08:58.946Z,3.60
2018-04-26T08:11:25.693Z,2.80
2018-04-26T08:13:52.477Z,2.80
2018-04-26T08:16:18.483Z,4.00
2018-04-26T08:18:45.249Z,3.17
2018-04-26T08:21:11.269Z,3.17
2018-04-26T08:23:38.034Z,4.90
2018-04-26T08:26:04.044Z,2.77
2018-04-26T08:28:30.058Z,2.93
2018-04-26T08:30:56.078Z,3.00
2018-04-26T08:33:22.101Z,2.60
2018-04-26T08:35:48.121Z,4.00
2018-04-26T08:38:14.154Z,3.40
2018-04-26T08:40:40.186Z,3.40
2018-04-26T08:43:06.994Z,3.30
2018-04-26T08:45:33.052Z,2.90
2018-04-26T08:47:59.025Z,3.10
2018-04-26T08:50:25.042Z,3.20
2018-04-26T08:52:51.054Z,2.90
2018-04-26T08:55:17.069Z,3.03
2018-04-26T08:57:43.083Z,2.53
2018-04-26T09:00:09.124Z,2.60
2018-04-26T09:02:35.147Z,3.60
2018-04-26T09:05:01.182Z,2.40
2018-04-26T09:07:27.203Z,2.60
2018-04-26T09:09:53.236Z,3.40
2018-04-26T09:12:19.250Z,3.10
2018-04-26T09:14:46.035Z,3.30
2018-04-26T09:17:12.048Z,3.40
2018-04-26T09:19:38.812Z,2.90
2018-04-26T09:22:05.571Z,2.57
2018-04-26T09:24:31.590Z,2.33
2018-04-26T09:26:58.342Z,1.90
2018-04-26T09:29:25.122Z,3.10
2018-04-26T09:31:51.129Z,2.90
2018-04-26T09:34:17.914Z,3.03
2018-04-26T09:36:44.057Z,2.63
2018-04-26T09:39:10.091Z,3.00
2018-04-26T09:41:36.137Z,2.90
2018-04-26T09:44:02.171Z,1.90
2018-04-26T09:46:28.213Z,2.70
2018-04-26T09:48:54.243Z,2.33
2018-04-26T09:51:20.270Z,2.40
2018-04-26T09:53:46.294Z,2.40
2018-04-26T09:56:12.315Z,2.30
2018-04-26T09:58:39.160Z,2.20
2018-04-26T10:01:08.978Z,2.20
2018-04-26T10:03:37.803Z,2.60
2018-04-26T10:06:04.598Z,2.20
2018-04-26T10:08:30.638Z,2.33
2018-04-26T10:10:56.699Z,2.30
2018-04-26T10:13:22.715Z,2.20
2018-04-26T10:15:48.747Z,1.73
2018-04-26T10:18:14.767Z,2.07
2018-04-26T10:20:40.797Z,2.00
2018-04-26T10:23:06.818Z,2.30
2018-04-26T10:25:32.852Z,1.70
2018-04-26T10:27:58.952Z,2.27
2018-04-26T10:30:24.925Z,2.10
2018-04-26T10:32:51.011Z,2.03
2018-04-26T10:35:17.052Z,1.80
2018-04-26T10:37:43.025Z,2.07
2018-04-26T10:40:09.779Z,1.90
2018-04-26T10:42:35.816Z,1.97
2018-04-26T10:45:02.576Z,2.00
2018-04-26T10:47:28.604Z,2.20
2018-04-26T10:49:55.358Z,2.10
2018-04-26T10:52:22.121Z,2.37
2018-04-26T10:54:48.138Z,2.03
2018-04-26T10:57:14.909Z,1.90
2018-04-26T10:59:40.923Z,1.87
2018-04-26T11:02:07.698Z,2.53
2018-04-26T11:04:33.718Z,1.90
2018-04-26T11:07:00.486Z,2.33
2018-04-26T11:09:26.504Z,2.40
2018-04-26T11:11:53.271Z,2.23
2018-04-26T11:14:19.296Z,2.00
2018-04-26T11:16:46.055Z,2.37
2018-04-26T11:19:12.814Z,2.07
2018-04-26T11:21:39.565Z,2.63
2018-04-26T11:24:06.327Z,2.30
2018-04-26T11:26:32.690Z,2.43
2018-04-26T11:28:58.385Z,2.03
2018-04-26T11:31:24.413Z,2.10
2018-04-26T11:33:51.195Z,2.20
2018-04-26T11:36:17.222Z,2.20
2018-04-26T11:38:43.277Z,1.50
2018-04-26T11:41:09.293Z,2.03
2018-04-26T11:43:35.331Z,2.37
2018-04-26T11:46:01.365Z,1.83
2018-04-26T11:48:27.401Z,1.90
2018-04-26T11:50:53.426Z,1.30
2018-04-26T11:53:20.199Z,1.47
2018-04-26T11:55:46.236Z,1.67
2018-04-26T11:58:12.266Z,1.63
2018-04-26T12:00:38.290Z,2.00
2018-04-26T12:03:05.071Z,2.40
2018-04-26T12:05:31.113Z,1.70
2018-04-26T12:07:57.145Z,1.60
2018-04-26T12:10:23.179Z,1.97
2018-04-26T12:12:49.202Z,1.40
2018-04-26T12:15:15.235Z,1.70
2018-04-26T12:17:41.985Z,1.60
2018-04-26T12:20:08.019Z,1.53
2018-04-26T12:22:34.768Z,1.97
2018-04-26T12:25:01.549Z,1.87
2018-04-26T12:27:27.573Z,1.40
2018-04-26T12:29:53.608Z,1.73
2018-04-26T12:32:19.621Z,1.70
2018-04-26T12:34:46.406Z,1.73
2018-04-26T12:37:12.441Z,2.23
2018-04-26T12:39:38.472Z,2.00
2018-04-26T12:42:04.582Z,1.90
2018-04-26T12:44:30.766Z,2.37
2018-04-26T12:46:56.852Z,1.90
2018-04-26T12:49:22.877Z,2.03
2018-04-26T12:51:49.813Z,2.03
2018-04-26T12:54:15.870Z,2.00
2018-04-26T12:56:41.907Z,2.00
2018-04-26T12:59:08.682Z,2.20
2018-04-26T13:01:35.441Z,1.87
2018-04-26T13:04:02.237Z,1.60
2018-04-26T13:06:28.426Z,2.00
2018-04-26T13:08:55.223Z,1.20
2018-04-26T13:11:21.246Z,1.50
2018-04-26T13:13:47.270Z,1.60
2018-04-26T13:16:13.296Z,2.03
2018-04-26T13:18:39.330Z,1.70
2018-04-26T13:21:06.167Z,1.60
2018-04-26T13:23:32.128Z,2.00
2018-04-26T13:25:58.157Z,1.53
2018-04-26T13:28:24.187Z,1.57
2018-04-26T13:30:50.955Z,1.70
2018-04-26T13:33:16.980Z,1.57
2018-04-26T13:35:43.066Z,1.90
2018-04-26T13:38:09.089Z,1.83
2018-04-26T13:40:35.114Z,1.50
2018-04-26T13:43:01.149Z,1.80
2018-04-26T13:45:27.225Z,1.50
2018-04-26T13:47:53.250Z,1.80
2018-04-26T13:50:19.269Z,1.07
2018-04-26T13:52:45.286Z,1.60
2018-04-26T13:55:11.310Z,1.50
2018-04-26T13:57:37.333Z,1.40
2018-04-26T14:00:04.119Z,1.67
2018-04-26T14:02:30.140Z,1.43
2018-04-26T14:04:56.179Z,1.50
2018-04-26T14:07:22.205Z,1.50
2018-04-26T14:09:48.224Z,1.40
2018-04-26T14:12:15.011Z,1.43
2018-04-26T14:14:41.049Z,1.73
2018-04-26T14:17:07.072Z,1.47
2018-04-26T14:19:33.087Z,1.50
2018-04-26T14:21:59.846Z,1.37
2018-04-26T14:24:26.605Z,3.03
2018-04-26T14:26:52.659Z,2.77
2018-04-26T14:29:18.780Z,4.10
2018-04-26T14:31:44.711Z,5.43
2018-04-26T14:34:10.740Z,4.07
2018-04-26T14:36:36.775Z,2.67
2018-04-26T14:39:02.834Z,2.73
2018-04-26T14:41:28.881Z,3.50
2018-04-26T14:43:54.899Z,5.30
2018-04-26T14:46:20.929Z,4.67
2018-04-26T14:48:46.948Z,3.53
2018-04-26T14:51:13.715Z,2.43
2018-04-26T14:53:39.742Z,2.13
2018-04-26T14:56:05.766Z,1.60
2018-04-26T14:58:32.528Z,1.60
2018-04-26T15:00:59.298Z,2.00
2018-04-26T15:03:25.331Z,1.83
2018-04-26T15:05:51.568Z,1.80
2018-04-26T15:08:17.612Z,1.73
2018-04-26T15:10:43.625Z,1.80
2018-04-26T15:13:10.400Z,2.43
2018-04-26T15:15:36.430Z,1.43
2018-04-26T15:18:02.473Z,1.30
2018-04-26T15:20:28.502Z,2.10
2018-04-26T15:22:54.526Z,1.37
2018-04-26T15:25:20.552Z,1.20
2018-04-26T15:27:47.332Z,1.80
2018-04-26T15:30:13.355Z,1.43
2018-04-26T15:32:39.373Z,1.60
2018-04-26T15:35:06.166Z,1.67
2018-04-26T15:37:32.369Z,1.63
2018-04-26T15:39:59.134Z,1.30
2018-04-26T15:42:25.160Z,1.70
2018-04-26T15:44:51.922Z,1.70
2018-04-26T15:47:17.952Z,2.00
2018-04-26T15:49:43.973Z,1.27
2018-04-26T15:52:10.759Z,1.40
2018-04-26T15:54:38.637Z,1.43
2018-04-26T15:57:12.677Z,1.47
2018-04-26T15:59:51.143Z,1.60
2018-04-26T16:02:33.700Z,1.80
2018-04-26T16:05:18.478Z,1.50
2018-04-26T16:08:03.085Z,1.47
2018-04-26T16:10:47.957Z,1.30
2018-04-26T16:16:48.124Z,1.80
2018-04-26T16:19:32.729Z,1.67
2018-04-26T16:22:17.366Z,2.07
2018-04-26T16:24:55.773Z,1.50
2018-04-26T16:27:40.503Z,1.80
2018-04-26T16:30:18.950Z,1.60
2018-04-26T16:33:03.690Z,1.60
2018-04-26T16:35:42.064Z,1.23
2018-04-26T16:38:21.431Z,1.40
2018-04-26T16:40:47.461Z,1.23
2018-04-26T16:43:14.225Z,1.27
2018-04-26T16:45:40.241Z,1.20
2018-04-26T16:48:07.072Z,1.83
2018-04-26T16:50:33.099Z,1.67
2018-04-26T16:52:59.109Z,1.50
2018-04-26T16:55:25.126Z,1.57
2018-04-26T16:57:51.145Z,1.30
2018-04-26T17:00:17.901Z,1.50
2018-04-26T17:02:43.914Z,1.60
2018-04-26T17:05:09.927Z,1.30
2018-04-26T17:07:35.955Z,1.10
2018-04-26T17:10:01.995Z,1.23
2018-04-26T17:12:28.007Z,1.40
2018-04-26T17:14:54.007Z,1.30
2018-04-26T17:17:20.027Z,1.37
2018-04-26T17:19:46.782Z,1.13
2018-04-26T17:22:13.538Z,1.47
2018-04-26T17:24:40.349Z,1.30
2018-04-26T17:27:06.392Z,1.13
2018-04-26T17:29:33.152Z,1.67
2018-04-26T17:31:59.162Z,1.10
2018-04-26T17:34:25.324Z,2.03
2018-04-26T17:36:51.373Z,1.50
2018-04-26T17:39:17.510Z,1.23
2018-04-26T17:41:43.547Z,1.30
2018-04-26T17:44:09.583Z,1.20
2018-04-26T17:46:36.357Z,1.20
2018-04-26T17:49:02.393Z,1.50
2018-04-26T17:51:28.423Z,1.20
2018-04-26T17:53:54.553Z,1.40
2018-04-26T17:56:21.318Z,1.30
2018-04-26T17:58:48.164Z,1.80
2018-04-26T18:01:14.927Z,1.00
2018-04-26T18:03:41.677Z,1.27
2018-04-26T18:06:08.452Z,1.40
2018-04-26T18:08:34.490Z,1.60
2018-04-26T18:11:00.563Z,1.37
2018-04-26T18:13:28.063Z,1.23
2018-04-26T18:15:54.838Z,1.40
2018-04-26T18:18:20.853Z,1.37
2018-04-26T18:20:47.669Z,1.47
2018-04-26T18:23:13.806Z,2.27
2018-04-26T18:25:39.829Z,1.20
2018-04-26T18:28:05.864Z,0.90
2018-04-26T18:30:31.890Z,1.53
2018-04-26T18:32:57.986Z,1.30
2018-04-26T18:35:24.759Z,1.60
2018-04-26T18:37:50.845Z,1.07
2018-04-26T18:40:16.918Z,1.23
2018-04-26T18:42:43.679Z,1.30
2018-04-26T18:45:09.696Z,1.30
2018-04-26T18:47:36.459Z,1.17
2018-04-26T18:50:03.235Z,1.17
2018-04-26T18:52:29.272Z,1.60
2018-04-26T18:54:55.325Z,1.20
2018-04-26T18:57:21.354Z,1.57
2018-04-26T18:59:47.383Z,1.30
2018-04-26T19:02:13.409Z,1.50
2018-04-26T19:04:39.429Z,4.80
2018-04-26T19:07:06.182Z,1.30
2018-04-26T19:09:32.931Z,1.77
2018-04-26T19:11:59.689Z,1.00
2018-04-26T19:14:25.726Z,1.33
2018-04-26T19:16:52.483Z,1.37
2018-04-26T19:19:18.504Z,1.10
2018-04-26T19:21:45.330Z,1.03
2018-04-26T19:24:11.353Z,1.30
2018-04-26T19:26:37.391Z,1.33
2018-04-26T19:29:03.421Z,1.10
2018-04-26T19:31:29.437Z,0.97
2018-04-26T19:33:55.483Z,1.10
2018-04-26T19:36:21.587Z,2.00
2018-04-26T19:38:47.637Z,0.97
2018-04-26T19:41:13.687Z,1.10
2018-04-26T19:43:39.707Z,1.60
2018-04-26T19:46:05.730Z,1.13
2018-04-26T19:48:31.753Z,1.40
2018-04-26T19:50:58.506Z,1.40
2018-04-26T19:53:25.293Z,1.40
2018-04-26T19:55:51.317Z,1.43
2018-04-26T19:58:17.341Z,1.43
2018-04-26T20:00:43.354Z,1.73
2018-04-26T20:03:10.130Z,1.63
2018-04-26T20:05:36.210Z,1.50
2018-04-26T20:08:02.227Z,1.30
2018-04-26T20:10:28.233Z,1.40
2018-04-26T20:12:55.010Z,1.73
2018-04-26T20:15:21.071Z,1.50
2018-04-26T20:17:47.098Z,1.20
2018-04-26T20:20:13.112Z,1.40
2018-04-26T20:22:39.205Z,1.17
2018-04-26T20:25:05.228Z,1.60
2018-04-26T20:27:31.242Z,1.33
2018-04-26T20:29:57.259Z,1.17
2018-04-26T20:32:23.269Z,1.50
2018-04-26T20:34:50.045Z,1.40
2018-04-26T20:37:16.067Z,1.57
2018-04-26T20:39:42.099Z,1.50
2018-04-26T20:42:08.123Z,1.10
2018-04-26T20:44:47.150Z,1.33
2018-04-26T20:47:13.205Z,1.50
2018-04-26T20:49:39.981Z,1.37
2018-04-26T20:52:06.032Z,1.23
2018-04-26T20:54:32.066Z,1.43
2018-04-26T20:56:58.099Z,1.47
2018-04-26T20:59:24.169Z,1.90
2018-04-26T21:01:50.190Z,1.30
2018-04-26T21:04:16.222Z,1.80
2018-04-26T21:06:42.252Z,1.13
2018-04-26T21:09:08.294Z,1.60
2018-04-26T21:11:34.322Z,1.70
2018-04-26T21:14:00.346Z,2.50
2018-04-26T21:16:26.391Z,1.83
2018-04-26T21:18:52.419Z,1.60
2018-04-26T21:21:18.457Z,1.77
2018-04-26T21:23:44.487Z,2.37
2018-04-26T21:26:10.517Z,1.30
2018-04-26T21:28:36.558Z,1.37
2018-04-26T21:31:02.570Z,1.77
2018-04-26T21:33:29.323Z,1.27
2018-04-26T21:35:56.086Z,1.83
2018-04-26T21:38:22.097Z,1.60
2018-04-26T21:40:48.865Z,1.47
2018-04-26T21:43:14.881Z,1.40
2018-04-26T21:45:40.901Z,1.30
2018-04-26T21:48:08.395Z,1.40
2018-04-26T21:50:41.289Z,1.47
2018-04-26T21:53:14.226Z,1.23
2018-04-26T21:55:46.217Z,1.37
2018-04-26T21:58:18.429Z,3.13
2018-04-26T22:00:50.595Z,1.13
2018-04-26T22:06:17.132Z,1.67
2018-04-26T22:08:43.152Z,1.67
2018-04-26T22:11:09.907Z,1.60
2018-04-26T22:13:36.661Z,1.63
2018-04-26T22:16:02.750Z,1.37
2018-04-26T22:18:28.784Z,1.93
2018-04-26T22:20:54.820Z,2.50
2018-04-26T22:23:20.849Z,2.57
2018-04-26T22:25:46.867Z,2.50
2018-04-26T22:28:12.882Z,2.00
2018-04-26T22:30:38.907Z,2.33
2018-04-26T22:33:04.926Z,1.47
2018-04-26T22:35:31.701Z,1.80
2018-04-26T22:37:57.709Z,2.00
2018-04-26T22:40:23.723Z,1.70
2018-04-26T22:42:49.750Z,1.77
2018-04-26T22:45:15.760Z,1.90
2018-04-26T22:47:41.840Z,2.60
2018-04-26T22:50:07.844Z,2.27
2018-04-26T22:52:33.859Z,2.50
2018-04-26T22:54:59.873Z,2.90
2018-04-26T22:57:26.647Z,2.30
2018-04-26T22:59:52.660Z,2.53
2018-04-26T23:02:19.420Z,1.80
2018-04-26T23:04:46.170Z,1.67
2018-04-26T23:07:12.922Z,1.63
2018-04-26T23:09:39.669Z,1.93
2018-04-26T23:12:06.425Z,1.70
2018-04-26T23:14:33.178Z,1.57
2018-04-26T23:16:59.933Z,1.50
2018-04-26T23:19:26.685Z,1.90
2018-04-26T23:21:53.440Z,1.60
2018-04-26T23:24:20.187Z,1.97
2018-04-26T23:26:46.958Z,2.03
2018-04-26T23:29:12.967Z,1.80
2018-04-26T23:31:39.721Z,1.70
2018-04-26T23:34:06.486Z,1.67
2018-04-26T23:36:33.239Z,1.63
2018-04-26T23:38:59.257Z,1.53
2018-04-26T23:41:26.006Z,1.20
2018-04-26T23:43:52.024Z,1.23
2018-04-26T23:46:19.530Z,1.83
2018-04-26T23:48:46.301Z,2.10
2018-04-26T23:51:12.313Z,1.80
2018-04-26T23:53:39.075Z,1.60
2018-04-26T23:56:05.093Z,2.40
2018-04-26T23:58:31.849Z,1.70
